Time;durP1;ratioP1;P1;durP2;ratioP2;P2;SDS_P1;SDS_P2;PMS_P1;PMS_P2;Temp;Humidity;BMP_temperature;BMP_pressure;BME280_temperature;BME280_humidity;BME280_pressure;Samples;Min_cycle;Max_cycle;Signal;HPM_P1;HPM_P2
2023/05/30 00:00:16;;;;;;;6.88;3.40;;;;;;;10.59;100.00;99149.03;4160760;28;20038;-73
2023/05/30 00:02:16;;;;;;;5.03;3.00;;;;;;;10.55;100.00;99148.16;4160155;28;20025;-73
2023/05/30 00:04:17;;;;;;;9.68;2.90;;;;;;;10.45;100.00;99154.25;4158631;28;20068;-73
2023/05/30 00:06:18;;;;;;;5.65;2.90;;;;;;;10.45;100.00;99146.75;4159857;28;20343;-73
2023/05/30 00:08:18;;;;;;;5.18;2.30;;;;;;;10.40;100.00;99158.09;4159937;28;20082;-73
2023/05/30 00:10:18;;;;;;;5.93;2.72;;;;;;;10.32;100.00;99150.78;4160203;28;20033;-73
2023/05/30 00:12:19;;;;;;;4.85;2.80;;;;;;;10.27;100.00;99159.41;4159668;28;20543;-73
2023/05/30 00:14:20;;;;;;;6.70;2.95;;;;;;;10.15;100.00;99163.03;4159912;28;20045;-73
2023/05/30 00:16:22;;;;;;;6.13;2.78;;;;;;;10.11;100.00;99162.16;4160135;28;20034;-73
2023/05/30 00:18:22;;;;;;;6.50;3.22;;;;;;;10.08;100.00;99166.41;4159797;28;20038;-73
2023/05/30 00:20:22;;;;;;;5.50;2.75;;;;;;;10.07;100.00;99170.34;4160019;28;20048;-72
2023/05/30 00:22:23;;;;;;;6.35;2.90;;;;;;;10.00;100.00;99166.59;4159590;28;20087;-73
2023/05/30 00:24:25;;;;;;;5.60;2.47;;;;;;;9.94;100.00;99155.03;4159368;28;20128;-73
2023/05/30 00:26:26;;;;;;;4.88;3.17;;;;;;;9.90;100.00;99153.31;4158558;28;20045;-73
2023/05/30 00:28:27;;;;;;;2.67;2.25;;;;;;;9.82;100.00;99161.41;4159991;28;20230;-73
2023/05/30 00:30:28;;;;;;;6.25;3.03;;;;;;;9.79;100.00;99164.09;4159879;28;20504;-72
2023/05/30 00:32:28;;;;;;;8.00;2.72;;;;;;;9.78;100.00;99160.53;4159153;28;20049;-73
2023/05/30 00:34:28;;;;;;;3.55;2.67;;;;;;;9.72;100.00;99167.50;4160248;28;20466;-73
2023/05/30 00:36:29;;;;;;;5.15;2.55;;;;;;;9.68;100.00;99169.38;4159748;28;20083;-72
2023/05/30 00:38:29;;;;;;;5.93;2.90;;;;;;;9.61;100.00;99166.41;4159265;28;20061;-72
2023/05/30 00:40:30;;;;;;;5.22;2.53;;;;;;;9.52;100.00;99168.56;4159032;28;20496;-73
2023/05/30 00:42:30;;;;;;;4.18;2.55;;;;;;;9.50;100.00;99170.84;4159241;28;20135;-73
2023/05/30 00:44:30;;;;;;;5.97;2.63;;;;;;;9.43;100.00;99165.13;4159287;28;20037;-72
2023/05/30 00:46:31;;;;;;;5.13;2.60;;;;;;;9.37;100.00;99159.06;4159665;28;20103;-72
2023/05/30 00:48:31;;;;;;;4.90;2.05;;;;;;;9.35;100.00;99169.69;4159797;28;20099;-73
2023/05/30 00:50:36;;;;;;;4.78;3.03;;;;;;;9.30;100.00;99167.16;4159236;28;20037;-72
2023/05/30 00:52:37;;;;;;;5.30;2.63;;;;;;;9.24;100.00;99166.59;4158570;28;20038;-72
2023/05/30 00:54:42;;;;;;;5.57;2.85;;;;;;;9.22;100.00;99168.13;4159045;28;20381;-72
2023/05/30 00:56:43;;;;;;;5.07;2.97;;;;;;;9.22;100.00;99176.41;4159444;28;20092;-72
2023/05/30 00:58:45;;;;;;;4.82;2.90;;;;;;;9.24;100.00;99174.88;4159134;28;20049;-72
2023/05/30 01:00:46;;;;;;;5.20;2.58;;;;;;;9.27;100.00;99176.97;4158892;28;20042;-72
2023/05/30 01:02:49;;;;;;;6.70;3.03;;;;;;;9.25;100.00;99189.50;4158079;28;20041;-72
2023/05/30 01:04:49;;;;;;;4.10;2.78;;;;;;;9.20;100.00;99178.72;4159297;28;20351;-72
2023/05/30 01:06:50;;;;;;;4.45;3.03;;;;;;;9.20;100.00;99181.47;4159406;28;20057;-72
2023/05/30 01:08:52;;;;;;;4.13;2.47;;;;;;;9.21;100.00;99180.31;4158429;28;20520;-72
2023/05/30 01:11:07;;;;;;;6.18;2.75;;;;;;;9.19;100.00;99175.16;4159002;28;20077;-72
2023/05/30 01:13:18;;;;;;;4.25;2.80;;;;;;;9.16;100.00;99166.75;4157436;28;20354;-72
2023/05/30 01:15:29;;;;;;;7.28;2.60;;;;;;;9.15;100.00;99170.69;4159209;28;20622;-72
2023/05/30 01:17:49;;;;;;;5.50;2.50;;;;;;;9.13;100.00;99171.03;4158734;28;20087;-72
2023/05/30 01:19:59;;;;;;;5.60;2.42;;;;;;;9.12;100.00;99176.91;4158261;28;20057;-72
2023/05/30 01:22:16;;;;;;;6.65;2.80;;;;;;;9.08;100.00;99170.47;4159278;28;20077;-72
2023/05/30 01:24:34;;;;;;;4.63;3.13;;;;;;;9.10;100.00;99173.66;4157219;28;20052;-72
2023/05/30 01:26:58;;;;;;;9.55;3.10;;;;;;;9.09;100.00;99174.84;4159603;28;20048;-72
2023/05/30 01:29:02;;;;;;;6.80;2.53;;;;;;;9.06;100.00;99179.09;4159049;28;20512;-72
2023/05/30 01:31:03;;;;;;;6.78;2.50;;;;;;;9.04;100.00;99180.63;4158713;28;20034;-72
2023/05/30 01:33:06;;;;;;;4.97;2.35;;;;;;;9.03;100.00;99182.56;4157631;28;20052;-72
2023/05/30 01:35:22;;;;;;;4.43;2.60;;;;;;;9.00;100.00;99184.06;4158679;28;20034;-72
2023/05/30 01:37:22;;;;;;;5.00;2.58;;;;;;;8.99;100.00;99185.22;4159463;28;20069;-72
2023/05/30 01:39:22;;;;;;;4.35;2.53;;;;;;;9.03;100.00;99185.34;4158626;28;20067;-72
2023/05/30 01:41:40;;;;;;;4.63;2.65;;;;;;;9.03;100.00;99179.03;4161622;28;20108;-72
2023/05/30 01:44:05;;;;;;;6.43;3.55;;;;;;;8.96;100.00;99179.63;4158420;28;20457;-72
2023/05/30 01:46:30;;;;;;;7.45;2.58;;;;;;;8.92;100.00;99182.25;4158904;28;20049;-72
2023/05/30 01:48:36;;;;;;;6.90;2.78;;;;;;;8.85;100.00;99176.50;4159305;28;20045;-72
2023/05/30 01:50:43;;;;;;;6.85;3.22;;;;;;;8.64;100.00;99173.13;4158508;28;20033;-72
2023/05/30 01:52:50;;;;;;;6.47;2.90;;;;;;;8.55;100.00;99178.00;4157494;28;20049;-72
2023/05/30 01:54:58;;;;;;;4.28;2.70;;;;;;;8.43;100.00;99190.63;4158287;28;20057;-72
2023/05/30 01:57:09;;;;;;;5.30;3.20;;;;;;;8.33;100.00;99187.50;4156831;28;20045;-72
2023/05/30 01:59:10;;;;;;;5.20;2.65;;;;;;;8.27;100.00;99188.88;4158123;28;20165;-72
2023/05/30 02:01:11;;;;;;;3.63;2.58;;;;;;;8.23;100.00;99196.25;4157818;28;20485;-72
2023/05/30 02:03:12;;;;;;;9.75;3.25;;;;;;;8.21;100.00;99199.34;4157885;28;20056;-72
2023/05/30 02:05:12;;;;;;;5.85;2.70;;;;;;;8.18;100.00;99198.06;4158415;28;20037;-72
2023/05/30 02:07:12;;;;;;;4.78;2.63;;;;;;;8.13;100.00;99200.28;4158080;28;20156;-72
2023/05/30 02:09:13;;;;;;;5.97;2.75;;;;;;;8.05;100.00;99209.47;4158576;28;20049;-72
2023/05/30 02:11:13;;;;;;;5.47;3.05;;;;;;;8.06;100.00;99211.06;4158262;28;20474;-72
2023/05/30 02:13:13;;;;;;;5.88;2.80;;;;;;;7.91;100.00;99212.53;4157338;28;20127;-72
2023/05/30 02:15:14;;;;;;;5.25;2.55;;;;;;;7.84;100.00;99224.13;4158407;28;20187;-72
2023/05/30 02:17:15;;;;;;;5.05;2.70;;;;;;;7.81;100.00;99215.75;4157744;28;20041;-72
2023/05/30 02:19:15;;;;;;;4.55;2.65;;;;;;;7.79;100.00;99218.84;4157996;28;20383;-72
2023/05/30 02:21:15;;;;;;;7.43;2.95;;;;;;;7.67;100.00;99216.03;4157805;28;20030;-72
2023/05/30 02:23:16;;;;;;;7.18;2.50;;;;;;;7.67;100.00;99218.00;4157158;28;20666;-72
2023/05/30 02:25:17;;;;;;;5.32;2.40;;;;;;;7.63;100.00;99215.13;4158365;28;20449;-72
2023/05/30 02:27:17;;;;;;;6.75;2.90;;;;;;;7.54;100.00;99219.94;4157817;28;20034;-72
2023/05/30 02:29:17;;;;;;;5.75;2.40;;;;;;;7.52;100.00;99205.66;4158172;28;20695;-72
2023/05/30 02:31:18;;;;;;;7.15;2.70;;;;;;;7.51;100.00;99209.56;4155489;28;20044;-72
2023/05/30 02:33:18;;;;;;;9.23;2.83;;;;;;;7.49;100.00;99211.88;4158035;28;20049;-72
2023/05/30 02:35:18;;;;;;;6.03;3.08;;;;;;;7.47;100.00;99206.72;4159180;28;20512;-72
2023/05/30 02:37:19;;;;;;;3.97;2.40;;;;;;;7.48;100.00;99215.78;4157681;28;20465;-72
2023/05/30 02:39:19;;;;;;;4.13;2.42;;;;;;;7.50;100.00;99214.28;4157767;28;20103;-72
2023/05/30 02:41:20;;;;;;;6.78;3.47;;;;;;;7.48;100.00;99213.81;4157287;28;20095;-72
2023/05/30 02:43:20;;;;;;;4.90;2.20;;;;;;;7.47;100.00;99217.72;4154453;28;20043;-72
2023/05/30 02:45:20;;;;;;;7.40;3.15;;;;;;;7.46;100.00;99224.38;4152582;28;20466;-72
2023/05/30 02:47:21;;;;;;;3.80;2.53;;;;;;;7.46;100.00;99218.06;4157228;28;20045;-72
2023/05/30 02:49:21;;;;;;;4.85;2.40;;;;;;;7.44;100.00;99217.56;4157045;28;20621;-72
2023/05/30 02:51:21;;;;;;;5.55;2.72;;;;;;;7.43;100.00;99213.22;4155271;28;20073;-72
2023/05/30 02:53:22;;;;;;;8.68;3.10;;;;;;;7.40;100.00;99214.72;4155586;28;20128;-72
2023/05/30 02:55:22;;;;;;;6.55;2.63;;;;;;;7.38;100.00;99216.19;4157644;28;20053;-72
2023/05/30 02:57:23;;;;;;;15.93;3.03;;;;;;;7.38;100.00;99213.44;4156814;28;20122;-72
2023/05/30 02:59:23;;;;;;;6.00;2.75;;;;;;;7.31;100.00;99214.00;4155428;28;20077;-72
2023/05/30 03:01:23;;;;;;;4.28;2.60;;;;;;;7.25;100.00;99218.91;4155313;28;20524;-72
2023/05/30 03:03:25;;;;;;;7.35;2.95;;;;;;;7.21;100.00;99219.94;4156392;28;20083;-72
2023/05/30 03:05:25;;;;;;;6.40;2.47;;;;;;;7.14;100.00;99223.22;4156648;28;20083;-72
2023/05/30 03:07:26;;;;;;;3.65;2.58;;;;;;;7.06;100.00;99220.53;4157033;28;20045;-72
2023/05/30 03:09:27;;;;;;;5.22;2.30;;;;;;;6.96;100.00;99214.31;4157359;28;20077;-72
2023/05/30 03:11:27;;;;;;;7.03;2.88;;;;;;;6.94;100.00;99222.06;4157222;28;20118;-72
2023/05/30 03:13:27;;;;;;;11.15;3.97;;;;;;;6.83;100.00;99222.81;4156718;28;20393;-72
2023/05/30 03:15:28;;;;;;;4.93;2.55;;;;;;;6.80;100.00;99224.28;4156531;28;20293;-72
2023/05/30 03:17:28;;;;;;;8.07;3.17;;;;;;;6.72;100.00;99214.16;4157027;28;20041;-72
2023/05/30 03:19:29;;;;;;;7.95;2.95;;;;;;;6.70;100.00;99221.91;4157640;28;20060;-71
2023/05/30 03:21:30;;;;;;;7.22;2.85;;;;;;;6.73;100.00;99221.28;4155207;28;20441;-72
2023/05/30 03:23:31;;;;;;;7.38;2.72;;;;;;;6.72;100.00;99216.91;4156971;28;20347;-72
2023/05/30 03:25:32;;;;;;;16.52;3.97;;;;;;;6.66;100.00;99221.00;4157010;28;20061;-72
2023/05/30 03:27:32;;;;;;;8.63;2.90;;;;;;;6.59;100.00;99216.00;4158270;28;20037;-72
2023/05/30 03:29:33;;;;;;;7.47;2.78;;;;;;;6.54;100.00;99226.41;4152891;28;20049;-72
2023/05/30 03:31:35;;;;;;;5.05;2.28;;;;;;;6.47;100.00;99233.25;4151583;28;20059;-72
2023/05/30 03:33:35;;;;;;;5.57;2.60;;;;;;;6.41;100.00;99226.31;4156755;28;20056;-72
2023/05/30 03:35:35;;;;;;;5.47;2.70;;;;;;;6.40;100.00;99221.97;4155017;28;20402;-72
2023/05/30 03:37:36;;;;;;;7.18;2.40;;;;;;;6.41;100.00;99234.56;4158429;28;20721;-72
2023/05/30 03:39:36;;;;;;;3.97;2.58;;;;;;;6.39;100.00;99230.53;4156062;28;20170;-72
2023/05/30 03:41:36;;;;;;;5.60;2.35;;;;;;;6.40;100.00;99226.66;4156365;28;20049;-72
2023/05/30 03:43:37;;;;;;;4.28;2.30;;;;;;;6.41;100.00;99233.75;4156472;28;20446;-72
2023/05/30 03:45:37;;;;;;;7.22;2.10;;;;;;;6.40;100.00;99230.22;4156138;28;20037;-73
2023/05/30 03:47:37;;;;;;;4.30;2.40;;;;;;;6.38;100.00;99232.50;4155624;28;20065;-72
2023/05/30 03:49:38;;;;;;;4.32;2.58;;;;;;;6.39;100.00;99238.78;4156299;28;20084;-72
2023/05/30 03:51:38;;;;;;;4.47;2.40;;;;;;;6.36;100.00;99237.50;4156591;28;20124;-72
2023/05/30 03:53:38;;;;;;;6.80;3.00;;;;;;;6.34;100.00;99241.72;4155259;28;20091;-72
2023/05/30 03:55:39;;;;;;;5.25;2.80;;;;;;;6.29;100.00;99237.22;4156449;28;20034;-72
2023/05/30 03:57:40;;;;;;;10.75;3.17;;;;;;;6.31;100.00;99234.94;4157372;28;20321;-72
2023/05/30 03:59:40;;;;;;;7.82;2.75;;;;;;;6.35;100.00;99240.56;4157056;28;20394;-72
2023/05/30 04:01:40;;;;;;;7.28;2.67;;;;;;;6.43;100.00;99243.28;4158485;28;20128;-72
2023/05/30 04:03:43;;;;;;;5.55;2.50;;;;;;;6.42;100.00;99244.41;4159599;28;20050;-72
2023/05/30 04:05:43;;;;;;;5.55;2.47;;;;;;;6.43;100.00;99242.47;4160345;28;20501;-72
2023/05/30 04:07:43;;;;;;;3.72;2.60;;;;;;;6.47;100.00;99247.00;4159568;28;20042;-72
2023/05/30 04:09:44;;;;;;;7.40;3.00;;;;;;;6.44;100.00;99244.88;4159832;28;20053;-72
2023/05/30 04:11:44;;;;;;;5.97;3.22;;;;;;;6.45;100.00;99257.53;4160220;28;20089;-72
2023/05/30 04:13:44;;;;;;;5.38;2.25;;;;;;;6.50;100.00;99266.69;4159658;28;20275;-72
2023/05/30 04:15:45;;;;;;;5.25;2.60;;;;;;;6.53;100.00;99258.59;4159614;28;20056;-72
2023/05/30 04:17:45;;;;;;;8.60;2.60;;;;;;;6.66;100.00;99254.78;4158920;28;20061;-72
2023/05/30 04:19:46;;;;;;;7.35;2.65;;;;;;;6.73;100.00;99257.03;4159841;28;20053;-72
2023/05/30 04:21:46;;;;;;;5.75;2.80;;;;;;;6.82;100.00;99252.28;4159533;28;20060;-72
2023/05/30 04:23:46;;;;;;;5.22;2.90;;;;;;;6.92;100.00;99262.06;4159606;28;20366;-72
2023/05/30 04:25:47;;;;;;;6.45;2.78;;;;;;;7.01;100.00;99262.81;4159946;28;20038;-72
2023/05/30 04:27:48;;;;;;;6.03;3.42;;;;;;;7.10;100.00;99263.53;4159801;28;20044;-72
2023/05/30 04:29:48;;;;;;;12.32;3.42;;;;;;;7.20;100.00;99263.16;4159723;28;20045;-72
2023/05/30 04:31:49;;;;;;;5.97;2.78;;;;;;;7.34;100.00;99271.13;4160003;28;20553;-72
2023/05/30 04:33:50;;;;;;;5.70;3.30;;;;;;;7.47;100.00;99264.53;4158688;28;20543;-72
2023/05/30 04:35:51;;;;;;;7.28;3.15;;;;;;;7.62;100.00;99265.06;4159837;28;20119;-72
2023/05/30 04:37:53;;;;;;;5.28;2.65;;;;;;;7.75;100.00;99274.94;4160076;28;20505;-72
2023/05/30 04:39:55;;;;;;;6.63;2.65;;;;;;;7.89;100.00;99269.94;4159508;28;20042;-72
2023/05/30 04:41:56;;;;;;;5.88;2.50;;;;;;;8.04;100.00;99274.00;4160108;28;20132;-72
2023/05/30 04:43:57;;;;;;;6.22;3.25;;;;;;;8.17;100.00;99275.59;4158283;28;20041;-72
2023/05/30 04:46:00;;;;;;;7.15;3.25;;;;;;;8.30;100.00;99279.19;4159441;28;20390;-72
2023/05/30 04:48:00;;;;;;;;;;;;;;;8.43;100.00;99286.34;4159381;28;20124;-72
2023/05/30 04:50:01;;;;;;;7.57;3.50;;;;;;;8.53;100.00;99274.06;4159209;28;20006;-72
2023/05/30 04:52:03;;;;;;;5.55;3.15;;;;;;;8.63;100.00;99274.41;4159391;28;20044;-73
2023/05/30 04:54:04;;;;;;;8.40;3.30;;;;;;;8.75;100.00;99279.09;4158718;28;20549;-72
2023/05/30 04:56:04;;;;;;;6.97;3.25;;;;;;;8.83;100.00;99280.13;4158713;28;20100;-72
2023/05/30 04:58:05;;;;;;;8.77;3.47;;;;;;;8.91;100.00;99276.44;4159062;28;20041;-72
2023/05/30 05:00:14;;;;;;;4.93;2.70;;;;;;;8.98;100.00;99273.91;4159113;28;20037;-71
2023/05/30 05:02:15;;;;;;;5.72;3.05;;;;;;;9.06;100.00;99272.97;4158687;28;20143;-71
2023/05/30 05:04:15;;;;;;;5.50;2.60;;;;;;;9.17;100.00;99276.03;4158576;28;20033;-71
2023/05/30 05:06:15;;;;;;;5.60;2.67;;;;;;;9.24;100.00;99273.47;4159395;28;20087;-71
2023/05/30 05:08:16;;;;;;;6.97;3.05;;;;;;;9.28;100.00;99264.16;4159377;28;20044;-71
2023/05/30 05:10:16;;;;;;;4.32;2.70;;;;;;;9.24;100.00;99279.81;4111646;28;20085;-71
2023/05/30 05:12:17;;;;;;;5.68;2.75;;;;;;;9.19;100.00;99276.50;4165075;28;20032;-71
2023/05/30 05:14:17;;;;;;;8.77;3.45;;;;;;;9.17;100.00;99273.28;4158229;28;20039;-71
2023/05/30 05:16:18;;;;;;;4.80;2.70;;;;;;;9.26;100.00;99271.16;4158814;28;20033;-71
2023/05/30 05:18:18;;;;;;;10.25;3.15;;;;;;;9.35;100.00;99280.16;4159057;28;20133;-71
2023/05/30 05:20:18;;;;;;;10.45;3.22;;;;;;;9.42;100.00;99274.78;4159166;28;20026;-71
2023/05/30 05:22:19;;;;;;;8.30;3.38;;;;;;;9.49;100.00;99279.72;4158939;28;20359;-71
2023/05/30 05:24:19;;;;;;;6.18;2.70;;;;;;;9.58;100.00;99283.94;4158574;28;20025;-71
2023/05/30 05:26:20;;;;;;;8.38;2.80;;;;;;;9.69;98.75;99284.25;4158722;28;20473;-71
2023/05/30 05:28:20;;;;;;;6.45;3.22;;;;;;;9.83;100.00;99281.06;4158869;28;23080;-71
2023/05/30 05:30:20;;;;;;;7.43;3.30;;;;;;;9.88;97.59;99283.59;4159357;28;20053;-71
2023/05/30 05:32:20;;;;;;;9.32;3.80;;;;;;;10.00;97.69;99293.75;4158380;28;20092;-71
2023/05/30 05:34:21;;;;;;;4.18;2.72;;;;;;;10.00;98.76;99285.47;4158121;28;20060;-71
2023/05/30 05:36:21;;;;;;;5.68;2.67;;;;;;;10.12;96.81;99277.91;4159393;28;20325;-71
2023/05/30 05:38:22;;;;;;;4.68;2.42;;;;;;;10.18;94.44;99283.16;4158904;28;20045;-71
2023/05/30 05:40:23;;;;;;;7.75;3.15;;;;;;;10.14;94.79;99281.13;4158808;28;20098;-71
2023/05/30 05:42:23;;;;;;;7.03;3.00;;;;;;;10.19;94.61;99282.03;4158491;28;20462;-71
2023/05/30 05:44:23;;;;;;;8.55;2.50;;;;;;;10.31;94.17;99281.97;4157409;28;20566;-71
2023/05/30 05:46:24;;;;;;;9.05;3.05;;;;;;;10.40;93.24;99288.13;4157097;28;20449;-71
2023/05/30 05:48:24;;;;;;;5.53;2.85;;;;;;;10.46;92.70;99295.00;4157375;28;20067;-71
2023/05/30 05:50:24;;;;;;;7.35;2.88;;;;;;;10.52;91.32;99298.31;4157363;28;20037;-71
2023/05/30 05:52:25;;;;;;;6.78;2.50;;;;;;;10.59;92.16;99281.84;4157063;28;20052;-71
2023/05/30 05:54:25;;;;;;;5.55;2.47;;;;;;;10.61;92.60;99294.19;4157055;28;20061;-71
2023/05/30 05:56:26;;;;;;;5.53;2.60;;;;;;;10.73;93.29;99292.47;4157687;28;20040;-71
2023/05/30 05:58:26;;;;;;;9.35;2.55;;;;;;;10.85;91.54;99289.59;4157632;28;20032;-71
2023/05/30 06:00:27;;;;;;;5.97;2.60;;;;;;;10.93;91.89;99296.91;4157964;28;20512;-71
2023/05/30 06:02:27;;;;;;;4.97;2.10;;;;;;;10.97;91.96;99295.00;4157957;28;20389;-71
2023/05/30 06:04:28;;;;;;;7.28;2.53;;;;;;;10.97;89.19;99293.03;4158415;28;20037;-71
2023/05/30 06:06:28;;;;;;;6.47;2.05;;;;;;;11.04;90.96;99297.94;4158093;28;20440;-71
2023/05/30 06:08:28;;;;;;;6.68;2.70;;;;;;;11.10;89.31;99299.28;4158389;28;20069;-71
2023/05/30 06:10:28;;;;;;;7.40;2.15;;;;;;;11.19;89.39;99297.09;4158611;28;20939;-71
2023/05/30 06:12:29;;;;;;;6.95;2.25;;;;;;;11.21;82.91;99291.19;4157865;28;20056;-71
2023/05/30 06:14:29;;;;;;;5.38;1.88;;;;;;;11.28;82.00;99291.34;4158023;28;20056;-71
2023/05/30 06:16:29;;;;;;;3.05;1.55;;;;;;;11.39;82.16;99284.06;4158550;28;20131;-71
2023/05/30 06:18:30;;;;;;;5.82;1.90;;;;;;;11.46;80.53;99291.72;4158260;28;20545;-71
2023/05/30 06:20:30;;;;;;;6.57;2.30;;;;;;;11.52;79.76;99295.81;4158056;28;20077;-71
2023/05/30 06:22:30;;;;;;;5.38;2.17;;;;;;;11.52;79.17;99287.50;4157581;28;20084;-71
2023/05/30 06:24:31;;;;;;;3.38;1.77;;;;;;;11.60;79.04;99286.50;4157286;28;20120;-71
2023/05/30 06:26:31;;;;;;;8.75;2.10;;;;;;;11.60;78.44;99286.50;4157880;28;20053;-71
2023/05/30 06:28:31;;;;;;;6.97;2.00;;;;;;;11.67;78.25;99291.38;4158255;28;20041;-71
2023/05/30 06:30:32;;;;;;;3.55;1.88;;;;;;;11.67;78.85;99300.50;4158311;28;20037;-71
2023/05/30 06:32:32;;;;;;;5.43;1.88;;;;;;;11.75;80.25;99304.19;4157345;28;20071;-71
2023/05/30 06:34:32;;;;;;;6.03;1.70;;;;;;;11.80;80.26;99292.84;4158050;28;20065;-71
2023/05/30 06:36:33;;;;;;;6.55;2.30;;;;;;;11.89;78.18;99289.84;4158165;28;20057;-71
2023/05/30 06:38:33;;;;;;;6.65;1.70;;;;;;;11.98;78.65;99295.94;4157964;28;20095;-71
2023/05/30 06:40:33;;;;;;;5.50;2.25;;;;;;;12.03;79.43;99288.13;4157808;28;20057;-71
2023/05/30 06:42:34;;;;;;;5.70;2.00;;;;;;;12.03;76.16;99293.69;4157495;28;20041;-71
2023/05/30 06:44:35;;;;;;;4.75;1.70;;;;;;;12.09;78.06;99296.97;4157289;28;20053;-71
2023/05/30 06:46:35;;;;;;;6.32;1.65;;;;;;;12.11;77.50;99291.84;4157672;28;20037;-71
2023/05/30 06:48:36;;;;;;;6.03;1.92;;;;;;;12.21;78.55;99301.53;4157867;28;20205;-71
2023/05/30 06:50:37;;;;;;;6.28;1.92;;;;;;;12.23;77.57;99291.66;4156832;28;20048;-71
2023/05/30 06:52:37;;;;;;;5.03;2.05;;;;;;;12.26;78.87;99292.91;4156994;28;20041;-71
2023/05/30 06:54:37;;;;;;;6.70;2.10;;;;;;;12.31;77.84;99300.91;4157477;28;20041;-71
2023/05/30 06:56:38;;;;;;;6.80;2.60;;;;;;;12.35;77.53;99294.28;4158142;28;20059;-71
2023/05/30 06:58:38;;;;;;;4.53;2.05;;;;;;;12.39;78.76;99299.88;4157384;28;20033;-71
2023/05/30 07:00:38;;;;;;;6.45;1.60;;;;;;;12.44;79.28;99291.25;4157940;28;20050;-71
2023/05/30 07:02:39;;;;;;;5.60;2.15;;;;;;;12.47;79.36;99296.03;4157286;28;20334;-71
2023/05/30 07:04:39;;;;;;;8.60;2.55;;;;;;;12.43;77.35;99291.63;4157500;28;20065;-71
2023/05/30 07:06:40;;;;;;;6.72;1.75;;;;;;;12.49;77.79;99296.47;4157874;28;20041;-71
2023/05/30 07:08:40;;;;;;;7.85;1.85;;;;;;;12.55;78.82;99306.09;4157884;28;20434;-71
2023/05/30 07:10:40;;;;;;;3.50;1.98;;;;;;;12.62;78.65;99300.66;4157692;28;20041;-71
2023/05/30 07:12:41;;;;;;;4.85;1.95;;;;;;;12.61;79.45;99299.06;4156811;28;20038;-71
2023/05/30 07:14:41;;;;;;;8.00;2.40;;;;;;;12.69;80.96;99297.22;4157755;28;20430;-71
2023/05/30 07:16:41;;;;;;;6.75;1.90;;;;;;;12.74;80.20;99296.88;4157938;28;20466;-71
2023/05/30 07:18:42;;;;;;;5.88;2.30;;;;;;;12.81;81.58;99299.75;4157683;28;20111;-71
2023/05/30 07:20:42;;;;;;;6.45;2.15;;;;;;;13.01;83.17;99305.22;4157414;28;20041;-71
2023/05/30 07:22:42;;;;;;;8.98;2.28;;;;;;;13.09;79.02;99293.84;4157276;28;20048;-71
2023/05/30 07:24:43;;;;;;;4.93;2.10;;;;;;;13.12;79.59;99301.44;4157614;28;20137;-71
2023/05/30 07:26:43;;;;;;;6.43;2.30;;;;;;;13.17;77.46;99300.31;4157472;28;20038;-71
2023/05/30 07:28:43;;;;;;;4.68;1.92;;;;;;;13.23;76.95;99292.47;4158129;28;20534;-71
2023/05/30 07:30:44;;;;;;;6.53;2.50;;;;;;;13.23;76.39;99298.03;4157248;28;20124;-71
2023/05/30 07:32:44;;;;;;;6.78;2.22;;;;;;;13.19;75.66;99306.28;4156830;28;20358;-71
2023/05/30 07:34:44;;;;;;;9.85;2.72;;;;;;;13.24;75.32;99296.84;4157678;28;20151;-71
2023/05/30 07:36:45;;;;;;;5.55;2.30;;;;;;;13.19;75.50;99309.06;4159511;28;20502;-71
2023/05/30 07:38:45;;;;;;;6.57;2.22;;;;;;;13.19;75.50;99307.13;4160756;28;20536;-71
2023/05/30 07:40:45;;;;;;;4.18;2.05;;;;;;;13.09;75.62;99309.72;4160578;28;20041;-71
2023/05/30 07:42:48;;;;;;;4.57;1.95;;;;;;;13.10;76.24;99305.75;4159835;28;20045;-71
2023/05/30 07:44:49;;;;;;;6.65;2.45;;;;;;;13.18;75.40;99311.06;4160608;28;20425;-71
2023/05/30 07:46:49;;;;;;;5.50;2.20;;;;;;;13.24;75.59;99307.97;4160389;28;20046;-71
2023/05/30 07:48:49;;;;;;;7.32;2.35;;;;;;;13.32;77.35;99306.88;4160955;28;20098;-71
2023/05/30 07:50:50;;;;;;;4.80;1.98;;;;;;;13.45;78.10;99316.59;4160606;28;20041;-71
2023/05/30 07:52:50;;;;;;;5.53;2.42;;;;;;;13.48;74.31;99313.84;4159425;28;20144;-71
2023/05/30 07:54:50;;;;;;;7.47;2.30;;;;;;;13.48;75.36;99310.28;4160842;28;20083;-71
2023/05/30 07:56:51;;;;;;;5.85;2.25;;;;;;;13.56;75.47;99311.97;4159889;28;20042;-71
2023/05/30 07:58:51;;;;;;;5.03;2.45;;;;;;;13.60;76.39;99318.38;4160382;28;20630;-71
2023/05/30 08:00:51;;;;;;;4.30;2.00;;;;;;;13.63;77.02;99311.25;4160313;28;20359;-71
2023/05/30 08:02:51;;;;;;;5.30;2.38;;;;;;;13.66;76.63;99305.75;4159703;28;20037;-71
2023/05/30 08:04:53;;;;;;;5.03;2.17;;;;;;;13.61;75.78;99314.44;4160587;28;20081;-71
2023/05/30 08:06:53;;;;;;;4.43;1.92;;;;;;;13.65;76.07;99318.06;4160173;28;20052;-71
2023/05/30 08:08:53;;;;;;;8.18;2.58;;;;;;;13.68;74.12;99302.59;4160658;28;20045;-71
2023/05/30 08:10:54;;;;;;;6.18;2.13;;;;;;;13.75;74.96;99311.84;4160163;28;20092;-71
2023/05/30 08:12:55;;;;;;;8.43;2.70;;;;;;;13.87;75.81;99315.53;4159609;28;20495;-71
2023/05/30 08:14:56;;;;;;;5.28;2.03;;;;;;;13.89;73.89;99311.19;4160440;28;20423;-71
2023/05/30 08:16:57;;;;;;;5.53;1.98;;;;;;;13.94;75.65;99299.72;4160552;28;20053;-71
2023/05/30 08:18:57;;;;;;;7.22;2.17;;;;;;;14.03;75.70;99311.34;4159971;28;20103;-71
2023/05/30 08:20:58;;;;;;;6.47;2.40;;;;;;;14.08;71.77;99312.19;4159759;28;20049;-71
2023/05/30 08:22:58;;;;;;;4.82;1.80;;;;;;;14.16;71.03;99319.44;4159375;28;20107;-71
2023/05/30 08:25:00;;;;;;;5.97;1.85;;;;;;;14.17;72.18;99316.28;4158822;28;20041;-71
2023/05/30 08:27:01;;;;;;;6.75;2.25;;;;;;;14.14;74.07;99317.00;4160138;28;20045;-71
2023/05/30 08:29:03;;;;;;;5.18;2.22;;;;;;;14.16;72.84;99322.22;4159757;28;20033;-71
2023/05/30 08:31:05;;;;;;;8.93;2.20;;;;;;;14.21;72.90;99311.53;4159358;28;20065;-71
2023/05/30 08:33:09;;;;;;;8.17;2.13;;;;;;;14.25;72.00;99322.72;4159191;28;20052;-71
2023/05/30 08:35:09;;;;;;;5.55;2.03;;;;;;;14.34;74.74;99321.22;4159965;28;20438;-71
2023/05/30 08:37:10;;;;;;;8.35;2.40;;;;;;;14.47;75.31;99316.19;4159555;28;20049;-71
2023/05/30 08:39:12;;;;;;;7.10;1.90;;;;;;;14.57;73.84;99323.06;4160255;28;20084;-71
2023/05/30 08:41:13;;;;;;;5.47;1.95;;;;;;;14.65;73.54;99319.16;4159218;28;20044;-71
2023/05/30 08:43:13;;;;;;;4.63;1.75;;;;;;;14.77;71.02;99318.03;4158993;28;20455;-71
2023/05/30 08:45:14;;;;;;;5.40;2.03;;;;;;;14.85;71.55;99316.91;4159784;28;20037;-71
2023/05/30 08:47:16;;;;;;;7.10;2.20;;;;;;;14.89;72.27;99307.41;4159082;28;20077;-71
2023/05/30 08:49:20;;;;;;;10.93;2.72;;;;;;;14.89;69.37;99303.78;4159389;28;20149;-71
2023/05/30 08:51:24;;;;;;;6.82;2.30;;;;;;;14.89;67.20;99310.19;4159596;28;20042;-71
2023/05/30 08:53:32;;;;;;;5.55;2.40;;;;;;;14.98;67.16;99306.28;4158616;28;20033;-71
2023/05/30 08:55:51;;;;;;;4.30;1.95;;;;;;;15.02;68.50;99305.09;4159013;28;20036;-71
2023/05/30 08:58:08;;;;;;;3.72;2.00;;;;;;;15.15;67.67;99314.75;4159912;28;20049;-71
2023/05/30 09:00:11;;;;;;;3.65;1.88;;;;;;;15.17;65.22;99308.78;4159160;28;20413;-71
2023/05/30 09:02:12;;;;;;;8.50;2.15;;;;;;;15.18;66.95;99307.59;4157838;28;20057;-72
2023/05/30 09:04:13;;;;;;;8.18;2.33;;;;;;;15.23;66.35;99306.44;4158933;28;20116;-72
2023/05/30 09:06:16;;;;;;;7.50;2.33;;;;;;;15.23;68.76;99307.22;4159425;28;20415;-72
2023/05/30 09:08:17;;;;;;;7.05;2.50;;;;;;;15.31;67.22;99294.13;4159034;28;20433;-72
2023/05/30 09:10:19;;;;;;;7.75;2.35;;;;;;;15.23;68.46;99298.88;4159014;28;20517;-71
2023/05/30 09:12:22;;;;;;;4.38;2.10;;;;;;;15.21;67.72;99303.22;4159290;28;20033;-72
2023/05/30 09:14:22;;;;;;;8.88;2.65;;;;;;;15.31;65.33;99308.06;4159058;28;20026;-71
2023/05/30 09:16:22;;;;;;;7.20;2.10;;;;;;;15.29;63.37;99310.44;4159067;28;20049;-71
2023/05/30 09:18:23;;;;;;;7.47;2.20;;;;;;;15.29;64.03;99297.28;4158870;28;20069;-72
2023/05/30 09:20:24;;;;;;;8.02;2.58;;;;;;;15.30;65.54;99303.66;4159441;28;20394;-71
2023/05/30 09:22:26;;;;;;;4.90;1.98;;;;;;;15.46;66.85;99307.72;4158601;28;20029;-71
2023/05/30 09:24:53;;;;;;;6.20;2.40;;;;;;;15.54;65.97;99310.56;4158529;28;20082;-71
2023/05/30 09:26:58;;;;;;;4.85;2.00;;;;;;;15.57;65.92;99304.22;4159025;28;20092;-71
2023/05/30 09:29:10;;;;;;;5.95;2.50;;;;;;;15.71;66.72;99313.44;4158956;28;20041;-71
2023/05/30 09:31:10;;;;;;;6.00;2.30;;;;;;;15.77;64.88;99313.88;4159177;28;20048;-72
2023/05/30 09:33:11;;;;;;;5.80;2.13;;;;;;;15.76;65.32;99303.13;4157960;28;20064;-71